sensor_id;sensor_type;location;lat;lon;timestamp;P1;durP1;ratioP1;P2;durP2;ratioP2
16033;SDS011;8121;51.418;6.998;2023-11-21T00:00:31;2.13;;;1.93;;
16033;SDS011;8121;51.418;6.998;2023-11-21T00:05:33;2.33;;;2.07;;
16033;SDS011;8121;51.418;6.998;2023-11-21T00:10:35;4.40;;;3.03;;
16033;SDS011;8121;51.418;6.998;2023-11-21T00:15:39;7.53;;;2.87;;
16033;SDS011;8121;51.418;6.998;2023-11-21T00:20:41;2.60;;;1.67;;
16033;SDS011;8121;51.418;6.998;2023-11-21T00:25:42;2.33;;;2.00;;
16033;SDS011;8121;51.418;6.998;2023-11-21T00:30:45;5.60;;;2.70;;
16033;SDS011;8121;51.418;6.998;2023-11-21T00:35:47;4.30;;;2.30;;
16033;SDS011;8121;51.418;6.998;2023-11-21T00:40:48;8.47;;;3.50;;
16033;SDS011;8121;51.418;6.998;2023-11-21T00:45:51;6.43;;;2.90;;
16033;SDS011;8121;51.418;6.998;2023-11-21T00:50:53;5.37;;;2.07;;
16033;SDS011;8121;51.418;6.998;2023-11-21T00:55:56;4.43;;;3.00;;
16033;SDS011;8121;51.418;6.998;2023-11-21T01:00:59;4.10;;;2.73;;
16033;SDS011;8121;51.418;6.998;2023-11-21T01:06:00;5.40;;;3.43;;
16033;SDS011;8121;51.418;6.998;2023-11-21T01:11:02;4.13;;;3.30;;
16033;SDS011;8121;51.418;6.998;2023-11-21T01:16:06;5.13;;;3.30;;
16033;SDS011;8121;51.418;6.998;2023-11-21T01:21:08;11.60;;;4.10;;
16033;SDS011;8121;51.418;6.998;2023-11-21T01:26:10;4.53;;;3.00;;
16033;SDS011;8121;51.418;6.998;2023-11-21T01:31:12;5.27;;;2.63;;
16033;SDS011;8121;51.418;6.998;2023-11-21T01:36:14;6.83;;;3.80;;
16033;SDS011;8121;51.418;6.998;2023-11-21T01:41:15;4.57;;;3.40;;
16033;SDS011;8121;51.418;6.998;2023-11-21T01:46:18;4.20;;;3.80;;
16033;SDS011;8121;51.418;6.998;2023-11-21T01:51:20;8.43;;;2.73;;
16033;SDS011;8121;51.418;6.998;2023-11-21T01:56:22;4.80;;;3.40;;
16033;SDS011;8121;51.418;6.998;2023-11-21T02:01:25;3.23;;;2.10;;
16033;SDS011;8121;51.418;6.998;2023-11-21T02:06:26;9.67;;;4.00;;
16033;SDS011;8121;51.418;6.998;2023-11-21T02:11:31;2.70;;;2.30;;
16033;SDS011;8121;51.418;6.998;2023-11-21T02:16:36;3.10;;;2.53;;
16033;SDS011;8121;51.418;6.998;2023-11-21T02:21:38;4.40;;;2.70;;
16033;SDS011;8121;51.418;6.998;2023-11-21T02:26:42;2.70;;;2.10;;
16033;SDS011;8121;51.418;6.998;2023-11-21T02:31:43;11.83;;;4.20;;
16033;SDS011;8121;51.418;6.998;2023-11-21T02:36:48;6.63;;;3.40;;
16033;SDS011;8121;51.418;6.998;2023-11-21T02:47:24;6.83;;;3.97;;
16033;SDS011;8121;51.418;6.998;2023-11-21T02:52:26;4.90;;;4.10;;
16033;SDS011;8121;51.418;6.998;2023-11-21T02:57:29;13.30;;;4.30;;
16033;SDS011;8121;51.418;6.998;2023-11-21T03:02:30;5.10;;;3.60;;
16033;SDS011;8121;51.418;6.998;2023-11-21T03:07:32;6.40;;;4.20;;
16033;SDS011;8121;51.418;6.998;2023-11-21T03:12:35;10.17;;;5.00;;
16033;SDS011;8121;51.418;6.998;2023-11-21T03:17:36;7.13;;;4.03;;
16033;SDS011;8121;51.418;6.998;2023-11-21T03:22:38;2.93;;;2.73;;
16033;SDS011;8121;51.418;6.998;2023-11-21T03:27:40;6.60;;;3.00;;
16033;SDS011;8121;51.418;6.998;2023-11-21T03:32:42;4.73;;;2.90;;
16033;SDS011;8121;51.418;6.998;2023-11-21T03:37:43;1.70;;;1.60;;
16033;SDS011;8121;51.418;6.998;2023-11-21T03:42:46;2.60;;;2.40;;
16033;SDS011;8121;51.418;6.998;2023-11-21T03:47:48;7.57;;;3.40;;
16033;SDS011;8121;51.418;6.998;2023-11-21T03:52:50;3.27;;;2.40;;
16033;SDS011;8121;51.418;6.998;2023-11-21T03:57:53;6.20;;;3.40;;
16033;SDS011;8121;51.418;6.998;2023-11-21T04:02:56;8.00;;;3.50;;
16033;SDS011;8121;51.418;6.998;2023-11-21T04:07:58;10.37;;;4.33;;
16033;SDS011;8121;51.418;6.998;2023-11-21T04:13:02;11.03;;;4.40;;
16033;SDS011;8121;51.418;6.998;2023-11-21T04:18:03;9.50;;;4.03;;
16033;SDS011;8121;51.418;6.998;2023-11-21T04:23:05;10.00;;;3.97;;
16033;SDS011;8121;51.418;6.998;2023-11-21T04:28:10;13.07;;;5.77;;
16033;SDS011;8121;51.418;6.998;2023-11-21T04:33:12;12.00;;;5.10;;
16033;SDS011;8121;51.418;6.998;2023-11-21T04:38:14;5.87;;;4.40;;
16033;SDS011;8121;51.418;6.998;2023-11-21T04:43:17;6.40;;;4.00;;
16033;SDS011;8121;51.418;6.998;2023-11-21T04:48:19;4.60;;;2.60;;
16033;SDS011;8121;51.418;6.998;2023-11-21T04:53:20;4.57;;;3.40;;
16033;SDS011;8121;51.418;6.998;2023-11-21T04:58:23;4.77;;;3.60;;
16033;SDS011;8121;51.418;6.998;2023-11-21T05:03:25;6.87;;;4.33;;
16033;SDS011;8121;51.418;6.998;2023-11-21T05:08:29;8.17;;;4.63;;
16033;SDS011;8121;51.418;6.998;2023-11-21T05:13:33;5.47;;;3.90;;
16033;SDS011;8121;51.418;6.998;2023-11-21T05:18:35;8.80;;;4.40;;
16033;SDS011;8121;51.418;6.998;2023-11-21T05:23:37;7.77;;;4.20;;
16033;SDS011;8121;51.418;6.998;2023-11-21T05:28:41;3.50;;;3.03;;
16033;SDS011;8121;51.418;6.998;2023-11-21T05:33:43;6.73;;;4.00;;
16033;SDS011;8121;51.418;6.998;2023-11-21T05:38:45;13.30;;;6.60;;
16033;SDS011;8121;51.418;6.998;2023-11-21T05:43:48;14.10;;;5.30;;
16033;SDS011;8121;51.418;6.998;2023-11-21T05:48:50;7.33;;;4.80;;
16033;SDS011;8121;51.418;6.998;2023-11-21T05:53:52;18.63;;;7.63;;
16033;SDS011;8121;51.418;6.998;2023-11-21T05:58:55;9.70;;;6.03;;
16033;SDS011;8121;51.418;6.998;2023-11-21T06:03:57;21.07;;;9.20;;
16033;SDS011;8121;51.418;6.998;2023-11-21T06:08:59;15.13;;;8.03;;
16033;SDS011;8121;51.418;6.998;2023-11-21T06:14:02;9.63;;;4.50;;
16033;SDS011;8121;51.418;6.998;2023-11-21T06:19:08;10.87;;;5.93;;
16033;SDS011;8121;51.418;6.998;2023-11-21T06:24:10;15.20;;;5.83;;
16033;SDS011;8121;51.418;6.998;2023-11-21T06:29:13;11.83;;;5.07;;
16033;SDS011;8121;51.418;6.998;2023-11-21T06:34:15;16.43;;;5.60;;
16033;SDS011;8121;51.418;6.998;2023-11-21T06:39:17;11.47;;;6.07;;
16033;SDS011;8121;51.418;6.998;2023-11-21T06:44:21;8.57;;;5.93;;
16033;SDS011;8121;51.418;6.998;2023-11-21T06:49:23;8.80;;;5.60;;
16033;SDS011;8121;51.418;6.998;2023-11-21T06:54:26;11.13;;;6.77;;
16033;SDS011;8121;51.418;6.998;2023-11-21T06:59:29;11.50;;;5.90;;
16033;SDS011;8121;51.418;6.998;2023-11-21T07:04:31;22.67;;;9.97;;
16033;SDS011;8121;51.418;6.998;2023-11-21T07:09:33;11.30;;;6.10;;
16033;SDS011;8121;51.418;6.998;2023-11-21T07:14:36;15.30;;;5.67;;
16033;SDS011;8121;51.418;6.998;2023-11-21T07:19:39;16.47;;;8.50;;
16033;SDS011;8121;51.418;6.998;2023-11-21T07:24:43;15.13;;;7.60;;
16033;SDS011;8121;51.418;6.998;2023-11-21T07:29:45;14.47;;;8.00;;
16033;SDS011;8121;51.418;6.998;2023-11-21T07:34:48;22.97;;;8.83;;
16033;SDS011;8121;51.418;6.998;2023-11-21T07:39:49;26.17;;;11.50;;
16033;SDS011;8121;51.418;6.998;2023-11-21T07:44:56;17.57;;;7.83;;
16033;SDS011;8121;51.418;6.998;2023-11-21T07:49:58;20.40;;;8.13;;
16033;SDS011;8121;51.418;6.998;2023-11-21T07:55:00;20.53;;;9.47;;
16033;SDS011;8121;51.418;6.998;2023-11-21T08:00:03;18.13;;;8.20;;
16033;SDS011;8121;51.418;6.998;2023-11-21T08:05:06;16.13;;;8.13;;
16033;SDS011;8121;51.418;6.998;2023-11-21T08:10:08;14.07;;;6.47;;
16033;SDS011;8121;51.418;6.998;2023-11-21T08:15:12;14.73;;;7.10;;
16033;SDS011;8121;51.418;6.998;2023-11-21T08:20:14;18.13;;;8.27;;
16033;SDS011;8121;51.418;6.998;2023-11-21T08:25:16;21.03;;;8.93;;
16033;SDS011;8121;51.418;6.998;2023-11-21T08:30:21;31.73;;;11.93;;
16033;SDS011;8121;51.418;6.998;2023-11-21T08:35:24;18.37;;;8.83;;
16033;SDS011;8121;51.418;6.998;2023-11-21T08:40:25;32.23;;;14.23;;
16033;SDS011;8121;51.418;6.998;2023-11-21T08:45:28;33.90;;;11.83;;
16033;SDS011;8121;51.418;6.998;2023-11-21T08:50:30;29.93;;;12.50;;
16033;SDS011;8121;51.418;6.998;2023-11-21T08:55:32;35.37;;;12.10;;
16033;SDS011;8121;51.418;6.998;2023-11-21T09:00:38;29.43;;;13.63;;
16033;SDS011;8121;51.418;6.998;2023-11-21T09:05:41;19.80;;;10.30;;
16033;SDS011;8121;51.418;6.998;2023-11-21T09:10:43;30.67;;;12.37;;
16033;SDS011;8121;51.418;6.998;2023-11-21T09:15:48;28.13;;;11.07;;
16033;SDS011;8121;51.418;6.998;2023-11-21T09:20:50;29.20;;;12.50;;
16033;SDS011;8121;51.418;6.998;2023-11-21T09:25:52;87.03;;;24.17;;
16033;SDS011;8121;51.418;6.998;2023-11-21T09:30:58;70.33;;;25.53;;
16033;SDS011;8121;51.418;6.998;2023-11-21T09:36:02;71.83;;;19.87;;
16033;SDS011;8121;51.418;6.998;2023-11-21T09:41:06;39.03;;;13.90;;
16033;SDS011;8121;51.418;6.998;2023-11-21T09:46:24;77.77;;;25.80;;
16033;SDS011;8121;51.418;6.998;2023-11-21T09:51:42;45.97;;;17.17;;
16033;SDS011;8121;51.418;6.998;2023-11-21T09:56:50;67.40;;;20.70;;
16033;SDS011;8121;51.418;6.998;2023-11-21T10:02:04;66.57;;;21.17;;
16033;SDS011;8121;51.418;6.998;2023-11-21T10:07:11;70.40;;;21.27;;
16033;SDS011;8121;51.418;6.998;2023-11-21T10:12:18;38.90;;;13.93;;
16033;SDS011;8121;51.418;6.998;2023-11-21T10:17:24;75.53;;;23.27;;
16033;SDS011;8121;51.418;6.998;2023-11-21T10:22:30;86.13;;;24.13;;
16033;SDS011;8121;51.418;6.998;2023-11-21T10:27:34;37.67;;;14.23;;
16033;SDS011;8121;51.418;6.998;2023-11-21T10:32:37;42.27;;;13.00;;
16033;SDS011;8121;51.418;6.998;2023-11-21T10:37:40;83.03;;;24.17;;
16033;SDS011;8121;51.418;6.998;2023-11-21T10:42:43;45.83;;;15.83;;
16033;SDS011;8121;51.418;6.998;2023-11-21T10:47:46;34.93;;;14.47;;
16033;SDS011;8121;51.418;6.998;2023-11-21T10:52:49;75.87;;;22.57;;
16033;SDS011;8121;51.418;6.998;2023-11-21T10:57:52;78.63;;;22.17;;
16033;SDS011;8121;51.418;6.998;2023-11-21T11:02:55;79.87;;;23.20;;
16033;SDS011;8121;51.418;6.998;2023-11-21T11:07:59;69.43;;;20.87;;
16033;SDS011;8121;51.418;6.998;2023-11-21T11:13:01;79.27;;;25.63;;
16033;SDS011;8121;51.418;6.998;2023-11-21T11:18:04;107.07;;;24.80;;
16033;SDS011;8121;51.418;6.998;2023-11-21T11:23:13;71.20;;;23.53;;
16033;SDS011;8121;51.418;6.998;2023-11-21T11:28:41;82.03;;;24.57;;
16033;SDS011;8121;51.418;6.998;2023-11-21T11:33:50;84.10;;;25.77;;
16033;SDS011;8121;51.418;6.998;2023-11-21T11:38:58;84.67;;;24.57;;
16033;SDS011;8121;51.418;6.998;2023-11-21T11:44:03;81.97;;;25.10;;
16033;SDS011;8121;51.418;6.998;2023-11-21T11:49:07;83.87;;;26.47;;
16033;SDS011;8121;51.418;6.998;2023-11-21T11:54:11;66.47;;;21.13;;
16033;SDS011;8121;51.418;6.998;2023-11-21T11:59:13;47.60;;;15.47;;
16033;SDS011;8121;51.418;6.998;2023-11-21T12:04:24;54.23;;;18.90;;
16033;SDS011;8121;51.418;6.998;2023-11-21T12:09:31;58.80;;;21.93;;
16033;SDS011;8121;51.418;6.998;2023-11-21T12:14:33;39.50;;;17.47;;
16033;SDS011;8121;51.418;6.998;2023-11-21T12:19:38;24.33;;;9.50;;
16033;SDS011;8121;51.418;6.998;2023-11-21T12:24:41;46.57;;;17.50;;
16033;SDS011;8121;51.418;6.998;2023-11-21T12:29:42;40.60;;;13.53;;
16033;SDS011;8121;51.418;6.998;2023-11-21T12:34:53;31.33;;;13.90;;
16033;SDS011;8121;51.418;6.998;2023-11-21T12:39:58;35.10;;;15.47;;
16033;SDS011;8121;51.418;6.998;2023-11-21T12:45:09;40.47;;;17.30;;
16033;SDS011;8121;51.418;6.998;2023-11-21T12:50:16;52.43;;;19.93;;
16033;SDS011;8121;51.418;6.998;2023-11-21T12:55:23;46.63;;;18.47;;
16033;SDS011;8121;51.418;6.998;2023-11-21T13:00:31;66.53;;;25.60;;
16033;SDS011;8121;51.418;6.998;2023-11-21T13:05:38;57.87;;;25.33;;
16033;SDS011;8121;51.418;6.998;2023-11-21T13:10:43;76.93;;;27.70;;
16033;SDS011;8121;51.418;6.998;2023-11-21T13:15:47;75.73;;;28.33;;
16033;SDS011;8121;51.418;6.998;2023-11-21T13:20:52;60.97;;;24.50;;
16033;SDS011;8121;51.418;6.998;2023-11-21T13:25:55;53.30;;;22.80;;
16033;SDS011;8121;51.418;6.998;2023-11-21T13:30:56;59.27;;;21.97;;
16033;SDS011;8121;51.418;6.998;2023-11-21T13:36:04;31.67;;;15.23;;
16033;SDS011;8121;51.418;6.998;2023-11-21T13:41:07;47.70;;;17.73;;
16033;SDS011;8121;51.418;6.998;2023-11-21T13:46:10;43.10;;;16.67;;
16033;SDS011;8121;51.418;6.998;2023-11-21T13:51:16;21.80;;;10.43;;
16033;SDS011;8121;51.418;6.998;2023-11-21T13:56:18;21.73;;;10.27;;
16033;SDS011;8121;51.418;6.998;2023-11-21T14:01:24;20.43;;;11.10;;
16033;SDS011;8121;51.418;6.998;2023-11-21T14:06:47;21.70;;;11.80;;
16033;SDS011;8121;51.418;6.998;2023-11-21T14:11:49;29.63;;;11.83;;
16033;SDS011;8121;51.418;6.998;2023-11-21T14:16:53;18.20;;;9.80;;
16033;SDS011;8121;51.418;6.998;2023-11-21T14:21:57;25.03;;;10.97;;
16033;SDS011;8121;51.418;6.998;2023-11-21T14:26:58;18.90;;;10.10;;
16033;SDS011;8121;51.418;6.998;2023-11-21T14:32:00;21.87;;;11.73;;
16033;SDS011;8121;51.418;6.998;2023-11-21T14:37:03;16.30;;;9.07;;
16033;SDS011;8121;51.418;6.998;2023-11-21T14:42:05;14.63;;;8.43;;
16033;SDS011;8121;51.418;6.998;2023-11-21T14:47:08;17.43;;;8.47;;
16033;SDS011;8121;51.418;6.998;2023-11-21T14:52:16;15.00;;;7.13;;
16033;SDS011;8121;51.418;6.998;2023-11-21T14:57:31;14.80;;;6.90;;
16033;SDS011;8121;51.418;6.998;2023-11-21T15:02:33;14.03;;;6.73;;
16033;SDS011;8121;51.418;6.998;2023-11-21T15:08:00;18.17;;;6.30;;
16033;SDS011;8121;51.418;6.998;2023-11-21T15:13:20;14.00;;;6.63;;
16033;SDS011;8121;51.418;6.998;2023-11-21T15:18:22;7.27;;;4.77;;
16033;SDS011;8121;51.418;6.998;2023-11-21T15:23:26;9.60;;;4.13;;
16033;SDS011;8121;51.418;6.998;2023-11-21T15:28:30;7.27;;;4.33;;
16033;SDS011;8121;51.418;6.998;2023-11-21T15:33:33;6.87;;;4.37;;
16033;SDS011;8121;51.418;6.998;2023-11-21T15:38:37;5.20;;;4.20;;
16033;SDS011;8121;51.418;6.998;2023-11-21T15:43:39;5.00;;;3.63;;
16033;SDS011;8121;51.418;6.998;2023-11-21T15:48:40;5.43;;;4.03;;
16033;SDS011;8121;51.418;6.998;2023-11-21T15:53:51;6.80;;;4.30;;
16033;SDS011;8121;51.418;6.998;2023-11-21T15:58:52;5.20;;;4.07;;
16033;SDS011;8121;51.418;6.998;2023-11-21T16:03:54;10.07;;;5.67;;
16033;SDS011;8121;51.418;6.998;2023-11-21T16:08:57;8.03;;;5.37;;
16033;SDS011;8121;51.418;6.998;2023-11-21T16:13:59;8.17;;;5.60;;
16033;SDS011;8121;51.418;6.998;2023-11-21T16:19:00;9.30;;;6.53;;
16033;SDS011;8121;51.418;6.998;2023-11-21T16:24:04;11.37;;;7.30;;
16033;SDS011;8121;51.418;6.998;2023-11-21T16:29:06;13.73;;;8.70;;
16033;SDS011;8121;51.418;6.998;2023-11-21T16:34:11;20.87;;;10.90;;
16033;SDS011;8121;51.418;6.998;2023-11-21T16:39:14;15.37;;;8.90;;
16033;SDS011;8121;51.418;6.998;2023-11-21T16:44:17;14.70;;;8.50;;
16033;SDS011;8121;51.418;6.998;2023-11-21T16:49:20;15.10;;;7.10;;
16033;SDS011;8121;51.418;6.998;2023-11-21T16:54:23;11.33;;;7.50;;
16033;SDS011;8121;51.418;6.998;2023-11-21T16:59:25;12.03;;;6.83;;
16033;SDS011;8121;51.418;6.998;2023-11-21T17:04:26;7.83;;;7.03;;
16033;SDS011;8121;51.418;6.998;2023-11-21T17:09:29;10.17;;;7.40;;
16033;SDS011;8121;51.418;6.998;2023-11-21T17:14:31;14.63;;;7.07;;
16033;SDS011;8121;51.418;6.998;2023-11-21T17:19:33;13.10;;;7.30;;
16033;SDS011;8121;51.418;6.998;2023-11-21T17:24:36;12.40;;;6.40;;
16033;SDS011;8121;51.418;6.998;2023-11-21T17:29:38;11.47;;;6.10;;
16033;SDS011;8121;51.418;6.998;2023-11-21T17:34:40;19.47;;;7.83;;
16033;SDS011;8121;51.418;6.998;2023-11-21T17:39:43;11.87;;;7.03;;
16033;SDS011;8121;51.418;6.998;2023-11-21T17:44:45;8.07;;;5.67;;
16033;SDS011;8121;51.418;6.998;2023-11-21T17:49:47;8.97;;;5.77;;
16033;SDS011;8121;51.418;6.998;2023-11-21T17:54:50;12.53;;;7.07;;
16033;SDS011;8121;51.418;6.998;2023-11-21T17:59:52;9.37;;;6.60;;
16033;SDS011;8121;51.418;6.998;2023-11-21T18:04:54;10.83;;;6.10;;
16033;SDS011;8121;51.418;6.998;2023-11-21T18:09:58;7.37;;;5.30;;
16033;SDS011;8121;51.418;6.998;2023-11-21T18:15:00;9.17;;;5.83;;
16033;SDS011;8121;51.418;6.998;2023-11-21T18:20:02;6.57;;;4.67;;
16033;SDS011;8121;51.418;6.998;2023-11-21T18:25:06;7.10;;;5.67;;
16033;SDS011;8121;51.418;6.998;2023-11-21T18:30:08;9.67;;;5.40;;
16033;SDS011;8121;51.418;6.998;2023-11-21T18:35:11;6.47;;;4.50;;
16033;SDS011;8121;51.418;6.998;2023-11-21T18:40:14;5.90;;;4.40;;
16033;SDS011;8121;51.418;6.998;2023-11-21T18:45:17;8.40;;;4.30;;
16033;SDS011;8121;51.418;6.998;2023-11-21T18:50:19;4.57;;;3.73;;
16033;SDS011;8121;51.418;6.998;2023-11-21T18:55:23;11.43;;;3.97;;
16033;SDS011;8121;51.418;6.998;2023-11-21T19:00:25;5.90;;;5.00;;
16033;SDS011;8121;51.418;6.998;2023-11-21T19:05:27;11.93;;;5.60;;
16033;SDS011;8121;51.418;6.998;2023-11-21T19:10:30;8.70;;;4.93;;
16033;SDS011;8121;51.418;6.998;2023-11-21T19:15:32;10.53;;;5.07;;
16033;SDS011;8121;51.418;6.998;2023-11-21T19:20:34;6.67;;;5.40;;
16033;SDS011;8121;51.418;6.998;2023-11-21T19:25:37;9.27;;;6.47;;
16033;SDS011;8121;51.418;6.998;2023-11-21T19:30:47;13.93;;;4.97;;
16033;SDS011;8121;51.418;6.998;2023-11-21T19:35:49;7.00;;;5.37;;
16033;SDS011;8121;51.418;6.998;2023-11-21T19:40:55;9.27;;;6.27;;
16033;SDS011;8121;51.418;6.998;2023-11-21T19:45:57;7.50;;;5.63;;
16033;SDS011;8121;51.418;6.998;2023-11-21T19:51:03;8.83;;;5.90;;
16033;SDS011;8121;51.418;6.998;2023-11-21T19:56:07;10.80;;;6.57;;
16033;SDS011;8121;51.418;6.998;2023-11-21T20:01:09;8.10;;;5.63;;
16033;SDS011;8121;51.418;6.998;2023-11-21T20:06:11;8.67;;;5.90;;
16033;SDS011;8121;51.418;6.998;2023-11-21T20:11:18;11.57;;;6.40;;
16033;SDS011;8121;51.418;6.998;2023-11-21T20:16:24;9.87;;;6.30;;
16033;SDS011;8121;51.418;6.998;2023-11-21T20:21:29;11.87;;;7.27;;
16033;SDS011;8121;51.418;6.998;2023-11-21T20:26:35;12.70;;;6.23;;
16033;SDS011;8121;51.418;6.998;2023-11-21T20:31:37;12.17;;;7.27;;
16033;SDS011;8121;51.418;6.998;2023-11-21T20:36:39;9.93;;;6.80;;
16033;SDS011;8121;51.418;6.998;2023-11-21T20:41:44;11.97;;;7.80;;
16033;SDS011;8121;51.418;6.998;2023-11-21T20:46:45;14.03;;;8.40;;
16033;SDS011;8121;51.418;6.998;2023-11-21T20:51:48;15.97;;;8.90;;
16033;SDS011;8121;51.418;6.998;2023-11-21T20:56:52;18.47;;;9.83;;
16033;SDS011;8121;51.418;6.998;2023-11-21T21:01:56;17.27;;;8.80;;
16033;SDS011;8121;51.418;6.998;2023-11-21T21:06:57;18.30;;;10.53;;
16033;SDS011;8121;51.418;6.998;2023-11-21T21:12:03;13.73;;;9.10;;
16033;SDS011;8121;51.418;6.998;2023-11-21T21:17:11;12.50;;;8.47;;
16033;SDS011;8121;51.418;6.998;2023-11-21T21:22:18;13.00;;;8.93;;
16033;SDS011;8121;51.418;6.998;2023-11-21T21:27:22;17.90;;;8.70;;
16033;SDS011;8121;51.418;6.998;2023-11-21T21:32:27;11.87;;;7.60;;
16033;SDS011;8121;51.418;6.998;2023-11-21T21:37:29;9.00;;;5.70;;
16033;SDS011;8121;51.418;6.998;2023-11-21T21:42:32;11.40;;;8.10;;
16033;SDS011;8121;51.418;6.998;2023-11-21T21:47:33;11.83;;;8.43;;
16033;SDS011;8121;51.418;6.998;2023-11-21T21:52:35;13.10;;;8.93;;
16033;SDS011;8121;51.418;6.998;2023-11-21T21:57:39;13.70;;;7.53;;
16033;SDS011;8121;51.418;6.998;2023-11-21T22:02:41;15.80;;;8.33;;
16033;SDS011;8121;51.418;6.998;2023-11-21T22:07:43;12.43;;;8.33;;
16033;SDS011;8121;51.418;6.998;2023-11-21T22:12:46;9.83;;;7.73;;
16033;SDS011;8121;51.418;6.998;2023-11-21T22:17:47;10.93;;;7.60;;
16033;SDS011;8121;51.418;6.998;2023-11-21T22:22:50;9.07;;;6.53;;
16033;SDS011;8121;51.418;6.998;2023-11-21T22:27:53;11.40;;;7.50;;
16033;SDS011;8121;51.418;6.998;2023-11-21T22:32:54;10.43;;;6.97;;
16033;SDS011;8121;51.418;6.998;2023-11-21T22:37:57;11.70;;;7.63;;
16033;SDS011;8121;51.418;6.998;2023-11-21T22:43:00;14.43;;;8.23;;
16033;SDS011;8121;51.418;6.998;2023-11-21T22:48:02;10.93;;;7.23;;
16033;SDS011;8121;51.418;6.998;2023-11-21T22:53:03;7.10;;;5.07;;
16033;SDS011;8121;51.418;6.998;2023-11-21T22:58:06;10.50;;;6.90;;
16033;SDS011;8121;51.418;6.998;2023-11-21T23:03:08;5.70;;;5.00;;
16033;SDS011;8121;51.418;6.998;2023-11-21T23:08:10;10.63;;;6.90;;
16033;SDS011;8121;51.418;6.998;2023-11-21T23:13:13;10.00;;;4.63;;
16033;SDS011;8121;51.418;6.998;2023-11-21T23:18:15;7.60;;;4.87;;
16033;SDS011;8121;51.418;6.998;2023-11-21T23:23:16;7.40;;;5.13;;
16033;SDS011;8121;51.418;6.998;2023-11-21T23:28:19;5.20;;;4.10;;
16033;SDS011;8121;51.418;6.998;2023-11-21T23:33:21;8.43;;;4.20;;
16033;SDS011;8121;51.418;6.998;2023-11-21T23:38:25;5.77;;;4.67;;
16033;SDS011;8121;51.418;6.998;2023-11-21T23:43:27;7.30;;;4.00;;
16033;SDS011;8121;51.418;6.998;2023-11-21T23:48:29;6.00;;;3.40;;
16033;SDS011;8121;51.418;6.998;2023-11-21T23:53:30;5.13;;;4.07;;
16033;SDS011;8121;51.418;6.998;2023-11-21T23:58:34;5.67;;;3.93;;
